sensor_id;sensor_type;location;lat;lon;timestamp;pressure;altitude;pressure_sealevel;temperature;humidity
43804;BME280;29430;52.924;-2.388;2023-05-23T00:03:32;100339.31;;;13.36;77.48
43804;BME280;29430;52.924;-2.388;2023-05-23T00:08:24;100338.22;;;13.37;77.42
43804;BME280;29430;52.924;-2.388;2023-05-23T00:13:16;100334.25;;;13.40;77.43
43804;BME280;29430;52.924;-2.388;2023-05-23T00:18:11;100336.75;;;13.41;77.44
43804;BME280;29430;52.924;-2.388;2023-05-23T00:23:03;100337.13;;;13.45;77.72
43804;BME280;29430;52.924;-2.388;2023-05-23T00:27:54;100334.03;;;13.41;77.43
43804;BME280;29430;52.924;-2.388;2023-05-23T00:32:46;100336.97;;;13.40;78.22
43804;BME280;29430;52.924;-2.388;2023-05-23T00:37:38;100336.38;;;13.38;77.91
43804;BME280;29430;52.924;-2.388;2023-05-23T00:42:30;100334.84;;;13.42;77.63
43804;BME280;29430;52.924;-2.388;2023-05-23T00:47:23;100327.53;;;13.42;77.98
43804;BME280;29430;52.924;-2.388;2023-05-23T00:52:15;100331.56;;;13.33;78.82
43804;BME280;29430;52.924;-2.388;2023-05-23T00:57:07;100334.50;;;13.32;79.00
43804;BME280;29430;52.924;-2.388;2023-05-23T01:01:59;100335.72;;;13.36;78.73
43804;BME280;29430;52.924;-2.388;2023-05-23T01:06:54;100350.81;;;13.38;78.67
43804;BME280;29430;52.924;-2.388;2023-05-23T01:11:59;100345.38;;;13.38;79.10
43804;BME280;29430;52.924;-2.388;2023-05-23T01:16:57;100347.25;;;13.38;79.27
43804;BME280;29430;52.924;-2.388;2023-05-23T01:21:52;100349.13;;;13.37;79.31
43804;BME280;29430;52.924;-2.388;2023-05-23T01:31:42;100352.50;;;13.39;79.50
43804;BME280;29430;52.924;-2.388;2023-05-23T01:36:41;100343.03;;;13.42;79.29
43804;BME280;29430;52.924;-2.388;2023-05-23T01:41:33;100344.31;;;13.39;79.69
43804;BME280;29430;52.924;-2.388;2023-05-23T01:46:26;100339.09;;;13.38;79.42
43804;BME280;29430;52.924;-2.388;2023-05-23T01:51:21;100338.22;;;13.37;79.34
43804;BME280;29430;52.924;-2.388;2023-05-23T01:56:13;100337.03;;;13.33;79.59
43804;BME280;29430;52.924;-2.388;2023-05-23T02:01:04;100346.03;;;13.34;80.12
43804;BME280;29430;52.924;-2.388;2023-05-23T02:05:57;100343.28;;;13.34;80.30
43804;BME280;29430;52.924;-2.388;2023-05-23T02:10:48;100352.06;;;13.36;80.23
43804;BME280;29430;52.924;-2.388;2023-05-23T02:15:40;100354.19;;;13.34;79.94
43804;BME280;29430;52.924;-2.388;2023-05-23T02:20:32;100348.34;;;13.30;80.36
43804;BME280;29430;52.924;-2.388;2023-05-23T02:25:24;100346.28;;;13.25;80.02
43804;BME280;29430;52.924;-2.388;2023-05-23T02:30:16;100343.13;;;13.22;80.30
43804;BME280;29430;52.924;-2.388;2023-05-23T02:35:08;100345.91;;;13.15;80.06
43804;BME280;29430;52.924;-2.388;2023-05-23T02:40:00;100349.50;;;13.09;79.83
43804;BME280;29430;52.924;-2.388;2023-05-23T02:44:52;100348.09;;;13.00;80.65
43804;BME280;29430;52.924;-2.388;2023-05-23T02:49:44;100352.72;;;12.93;80.78
43804;BME280;29430;52.924;-2.388;2023-05-23T02:54:36;100360.13;;;12.85;80.49
43804;BME280;29430;52.924;-2.388;2023-05-23T02:59:27;100363.72;;;12.79;80.57
43804;BME280;29430;52.924;-2.388;2023-05-23T03:04:19;100364.34;;;12.68;80.42
43804;BME280;29430;52.924;-2.388;2023-05-23T03:09:14;100365.22;;;12.62;80.30
43804;BME280;29430;52.924;-2.388;2023-05-23T03:14:07;100366.28;;;12.54;80.60
43804;BME280;29430;52.924;-2.388;2023-05-23T03:18:58;100354.63;;;12.47;81.21
43804;BME280;29430;52.924;-2.388;2023-05-23T03:23:51;100361.53;;;12.43;81.61
43804;BME280;29430;52.924;-2.388;2023-05-23T03:28:42;100367.63;;;12.38;82.38
43804;BME280;29430;52.924;-2.388;2023-05-23T03:33:34;100362.59;;;12.35;82.48
43804;BME280;29430;52.924;-2.388;2023-05-23T03:38:29;100370.34;;;12.31;82.67
43804;BME280;29430;52.924;-2.388;2023-05-23T03:43:21;100370.34;;;12.31;83.09
43804;BME280;29430;52.924;-2.388;2023-05-23T03:48:12;100373.66;;;12.40;82.84
43804;BME280;29430;52.924;-2.388;2023-05-23T03:53:04;100380.34;;;12.44;82.35
43804;BME280;29430;52.924;-2.388;2023-05-23T03:57:56;100387.47;;;12.45;83.17
43804;BME280;29430;52.924;-2.388;2023-05-23T04:02:48;100380.34;;;12.44;82.98
43804;BME280;29430;52.924;-2.388;2023-05-23T04:07:44;100375.97;;;12.43;83.34
43804;BME280;29430;52.924;-2.388;2023-05-23T04:12:36;100368.00;;;12.42;83.39
43804;BME280;29430;52.924;-2.388;2023-05-23T04:17:29;100376.38;;;12.40;83.52
43804;BME280;29430;52.924;-2.388;2023-05-23T04:22:22;100379.09;;;12.40;83.82
43804;BME280;29430;52.924;-2.388;2023-05-23T04:27:14;100381.22;;;12.38;84.12
43804;BME280;29430;52.924;-2.388;2023-05-23T04:32:05;100372.84;;;12.40;84.06
43804;BME280;29430;52.924;-2.388;2023-05-23T04:37:01;100383.09;;;12.44;84.21
43804;BME280;29430;52.924;-2.388;2023-05-23T04:41:53;100386.41;;;12.46;84.39
43804;BME280;29430;52.924;-2.388;2023-05-23T04:46:44;100386.19;;;12.48;84.33
43804;BME280;29430;52.924;-2.388;2023-05-23T04:51:36;100392.91;;;12.52;84.74
43804;BME280;29430;52.924;-2.388;2023-05-23T04:56:28;100400.84;;;12.53;84.46
43804;BME280;29430;52.924;-2.388;2023-05-23T05:01:20;100393.50;;;12.54;84.55
43804;BME280;29430;52.924;-2.388;2023-05-23T05:06:15;100400.41;;;12.57;84.96
43804;BME280;29430;52.924;-2.388;2023-05-23T05:11:09;100401.25;;;12.57;84.36
43804;BME280;29430;52.924;-2.388;2023-05-23T05:16:01;100409.41;;;12.57;84.70
43804;BME280;29430;52.924;-2.388;2023-05-23T05:20:53;100417.34;;;12.59;84.27
43804;BME280;29430;52.924;-2.388;2023-05-23T05:25:46;100418.22;;;12.59;84.75
43804;BME280;29430;52.924;-2.388;2023-05-23T05:30:38;100420.06;;;12.59;84.83
43804;BME280;29430;52.924;-2.388;2023-05-23T05:35:30;100406.03;;;12.62;84.41
43804;BME280;29430;52.924;-2.388;2023-05-23T05:40:23;100409.81;;;12.67;84.85
43804;BME280;29430;52.924;-2.388;2023-05-23T05:45:14;100394.28;;;12.68;83.71
43804;BME280;29430;52.924;-2.388;2023-05-23T05:50:08;100396.16;;;12.74;83.94
43804;BME280;29430;52.924;-2.388;2023-05-23T05:55:02;100398.03;;;12.80;84.23
43804;BME280;29430;52.924;-2.388;2023-05-23T05:59:53;100405.75;;;12.83;83.61
43804;BME280;29430;52.924;-2.388;2023-05-23T06:04:45;100403.69;;;12.85;83.66
43804;BME280;29430;52.924;-2.388;2023-05-23T06:09:37;100393.19;;;12.89;83.89
43804;BME280;29430;52.924;-2.388;2023-05-23T06:14:29;100391.69;;;12.93;83.39
43804;BME280;29430;52.924;-2.388;2023-05-23T06:19:21;100396.72;;;12.96;83.31
43804;BME280;29430;52.924;-2.388;2023-05-23T06:24:13;100389.75;;;13.00;83.29
43804;BME280;29430;52.924;-2.388;2023-05-23T06:29:05;100384.53;;;13.05;83.34
43804;BME280;29430;52.924;-2.388;2023-05-23T06:33:57;100384.69;;;13.11;83.32
43804;BME280;29430;52.924;-2.388;2023-05-23T06:38:48;100381.91;;;13.24;83.42
43804;BME280;29430;52.924;-2.388;2023-05-23T06:43:40;100389.78;;;13.39;82.56
43804;BME280;29430;52.924;-2.388;2023-05-23T06:48:32;100392.44;;;13.52;82.80
43804;BME280;29430;52.924;-2.388;2023-05-23T06:53:23;100380.78;;;13.70;82.16
43804;BME280;29430;52.924;-2.388;2023-05-23T06:58:15;100378.69;;;13.91;81.57
43804;BME280;29430;52.924;-2.388;2023-05-23T07:03:07;100382.78;;;14.25;80.96
43804;BME280;29430;52.924;-2.388;2023-05-23T07:08:00;100387.50;;;14.55;78.52
43804;BME280;29430;52.924;-2.388;2023-05-23T07:12:51;100383.88;;;14.80;77.88
43804;BME280;29430;52.924;-2.388;2023-05-23T07:17:43;100390.66;;;15.08;75.97
43804;BME280;29430;52.924;-2.388;2023-05-23T07:22:35;100398.66;;;15.21;75.06
43804;BME280;29430;52.924;-2.388;2023-05-23T07:27:27;100391.09;;;15.23;75.60
43804;BME280;29430;52.924;-2.388;2023-05-23T07:32:19;100397.28;;;15.30;74.31
43804;BME280;29430;52.924;-2.388;2023-05-23T07:37:11;100394.53;;;15.30;74.96
43804;BME280;29430;52.924;-2.388;2023-05-23T07:42:02;100404.31;;;15.38;74.77
43804;BME280;29430;52.924;-2.388;2023-05-23T07:46:54;100418.13;;;15.43;73.94
43804;BME280;29430;52.924;-2.388;2023-05-23T07:51:46;100428.84;;;15.45;74.33
43804;BME280;29430;52.924;-2.388;2023-05-23T07:56:38;100439.53;;;15.46;73.67
43804;BME280;29430;52.924;-2.388;2023-05-23T08:01:30;100433.09;;;15.40;73.72
43804;BME280;29430;52.924;-2.388;2023-05-23T08:06:22;100427.63;;;15.40;74.40
43804;BME280;29430;52.924;-2.388;2023-05-23T08:11:13;100431.28;;;15.34;73.96
43804;BME280;29430;52.924;-2.388;2023-05-23T08:16:05;100437.91;;;15.27;74.10
43804;BME280;29430;52.924;-2.388;2023-05-23T08:20:57;100437.38;;;15.18;74.13
43804;BME280;29430;52.924;-2.388;2023-05-23T08:25:50;100433.94;;;15.11;74.14
43804;BME280;29430;52.924;-2.388;2023-05-23T08:30:42;100434.00;;;15.04;74.44
43804;BME280;29430;52.924;-2.388;2023-05-23T08:35:34;100439.31;;;14.99;74.81
43804;BME280;29430;52.924;-2.388;2023-05-23T08:40:30;100433.84;;;14.99;75.82
43804;BME280;29430;52.924;-2.388;2023-05-23T08:45:22;100431.25;;;15.04;75.77
43804;BME280;29430;52.924;-2.388;2023-05-23T08:50:15;100436.66;;;15.11;75.43
43804;BME280;29430;52.924;-2.388;2023-05-23T08:55:11;100436.56;;;15.17;74.67
43804;BME280;29430;52.924;-2.388;2023-05-23T09:00:04;100434.41;;;15.19;75.08
43804;BME280;29430;52.924;-2.388;2023-05-23T09:05:01;100448.47;;;15.23;74.49
43804;BME280;29430;52.924;-2.388;2023-05-23T09:09:53;100442.09;;;15.29;74.41
43804;BME280;29430;52.924;-2.388;2023-05-23T09:14:45;100453.50;;;15.38;74.35
43804;BME280;29430;52.924;-2.388;2023-05-23T09:19:40;100457.81;;;15.46;74.10
43804;BME280;29430;52.924;-2.388;2023-05-23T09:24:33;100449.31;;;15.54;74.37
43804;BME280;29430;52.924;-2.388;2023-05-23T09:29:26;100444.25;;;15.69;73.29
43804;BME280;29430;52.924;-2.388;2023-05-23T09:34:18;100437.53;;;15.84;73.00
43804;BME280;29430;52.924;-2.388;2023-05-23T09:39:11;100438.13;;;16.09;73.15
43804;BME280;29430;52.924;-2.388;2023-05-23T09:44:07;100432.56;;;16.40;69.91
43804;BME280;29430;52.924;-2.388;2023-05-23T09:49:00;100444.47;;;16.45;70.52
43804;BME280;29430;52.924;-2.388;2023-05-23T09:53:52;100445.41;;;16.63;70.01
43804;BME280;29430;52.924;-2.388;2023-05-23T09:58:46;100440.75;;;16.75;70.25
43804;BME280;29430;52.924;-2.388;2023-05-23T10:03:51;100442.41;;;16.88;69.86
43804;BME280;29430;52.924;-2.388;2023-05-23T10:08:56;100440.38;;;16.95;68.18
43804;BME280;29430;52.924;-2.388;2023-05-23T10:13:49;100438.81;;;16.99;68.34
43804;BME280;29430;52.924;-2.388;2023-05-23T10:18:42;100441.66;;;17.05;67.45
43804;BME280;29430;52.924;-2.388;2023-05-23T10:23:34;100441.91;;;17.03;67.27
43804;BME280;29430;52.924;-2.388;2023-05-23T10:28:28;100426.81;;;16.89;67.41
43804;BME280;29430;52.924;-2.388;2023-05-23T10:33:19;100430.63;;;16.88;67.86
43804;BME280;29430;52.924;-2.388;2023-05-23T10:38:27;100430.84;;;16.98;67.42
43804;BME280;29430;52.924;-2.388;2023-05-23T10:43:28;100414.09;;;17.11;67.36
43804;BME280;29430;52.924;-2.388;2023-05-23T10:48:22;100417.63;;;17.24;67.22
43804;BME280;29430;52.924;-2.388;2023-05-23T10:53:22;100426.06;;;17.34;66.93
43804;BME280;29430;52.924;-2.388;2023-05-23T10:58:16;100427.63;;;17.30;65.38
43804;BME280;29430;52.924;-2.388;2023-05-23T11:03:10;100426.66;;;17.07;65.66
43804;BME280;29430;52.924;-2.388;2023-05-23T11:08:12;100423.69;;;16.85;66.35
43804;BME280;29430;52.924;-2.388;2023-05-23T11:13:08;100422.28;;;16.82;66.80
43804;BME280;29430;52.924;-2.388;2023-05-23T11:18:05;100412.97;;;16.83;66.59
43804;BME280;29430;52.924;-2.388;2023-05-23T11:23:02;100415.59;;;16.78;66.01
43804;BME280;29430;52.924;-2.388;2023-05-23T11:27:54;100429.88;;;16.80;66.65
43804;BME280;29430;52.924;-2.388;2023-05-23T11:32:51;100439.06;;;16.74;65.65
43804;BME280;29430;52.924;-2.388;2023-05-23T11:37:43;100438.25;;;16.74;66.76
43804;BME280;29430;52.924;-2.388;2023-05-23T11:42:40;100436.00;;;16.71;66.42
43804;BME280;29430;52.924;-2.388;2023-05-23T11:47:39;100436.56;;;16.73;65.70
43804;BME280;29430;52.924;-2.388;2023-05-23T11:52:31;100437.66;;;16.72;65.43
43804;BME280;29430;52.924;-2.388;2023-05-23T11:57:23;100435.25;;;16.75;65.72
43804;BME280;29430;52.924;-2.388;2023-05-23T12:02:15;100439.19;;;16.79;64.70
43804;BME280;29430;52.924;-2.388;2023-05-23T12:07:06;100427.50;;;16.84;65.09
43804;BME280;29430;52.924;-2.388;2023-05-23T12:11:58;100429.63;;;17.06;64.97
43804;BME280;29430;52.924;-2.388;2023-05-23T12:16:51;100427.34;;;17.43;64.95
43804;BME280;29430;52.924;-2.388;2023-05-23T12:21:47;100426.06;;;17.80;64.13
43804;BME280;29430;52.924;-2.388;2023-05-23T12:26:53;100421.84;;;18.23;62.38
43804;BME280;29430;52.924;-2.388;2023-05-23T12:31:48;100405.69;;;18.66;61.34
43804;BME280;29430;52.924;-2.388;2023-05-23T12:36:41;100406.75;;;19.04;60.35
43804;BME280;29430;52.924;-2.388;2023-05-23T12:41:40;100396.28;;;19.28;58.02
43804;BME280;29430;52.924;-2.388;2023-05-23T12:46:32;100396.56;;;19.26;56.51
43804;BME280;29430;52.924;-2.388;2023-05-23T12:51:25;100396.16;;;19.18;56.72
43804;BME280;29430;52.924;-2.388;2023-05-23T12:56:16;100398.44;;;19.26;57.18
43804;BME280;29430;52.924;-2.388;2023-05-23T13:01:09;100399.53;;;19.52;58.11
43804;BME280;29430;52.924;-2.388;2023-05-23T13:06:01;100395.84;;;19.68;57.10
43804;BME280;29430;52.924;-2.388;2023-05-23T13:10:53;100386.69;;;19.90;56.46
43804;BME280;29430;52.924;-2.388;2023-05-23T13:15:45;100387.63;;;20.06;54.42
43804;BME280;29430;52.924;-2.388;2023-05-23T13:20:40;100379.34;;;20.01;54.04
43804;BME280;29430;52.924;-2.388;2023-05-23T13:25:32;100385.03;;;19.89;54.10
43804;BME280;29430;52.924;-2.388;2023-05-23T13:30:24;100391.75;;;20.03;53.11
43804;BME280;29430;52.924;-2.388;2023-05-23T13:35:15;100377.78;;;20.15;52.27
43804;BME280;29430;52.924;-2.388;2023-05-23T13:40:11;100382.97;;;20.07;51.54
43804;BME280;29430;52.924;-2.388;2023-05-23T13:45:04;100373.28;;;19.99;52.11
43804;BME280;29430;52.924;-2.388;2023-05-23T13:49:56;100373.47;;;19.92;52.50
43804;BME280;29430;52.924;-2.388;2023-05-23T13:54:48;100361.41;;;19.98;53.25
43804;BME280;29430;52.924;-2.388;2023-05-23T13:59:40;100373.31;;;20.09;51.65
43804;BME280;29430;52.924;-2.388;2023-05-23T14:04:31;100360.34;;;20.04;50.87
43804;BME280;29430;52.924;-2.388;2023-05-23T14:09:23;100360.34;;;20.04;49.10
43804;BME280;29430;52.924;-2.388;2023-05-23T14:14:15;100366.28;;;19.86;51.04
43804;BME280;29430;52.924;-2.388;2023-05-23T14:19:08;100348.13;;;19.85;51.05
43804;BME280;29430;52.924;-2.388;2023-05-23T14:24:01;100355.34;;;19.96;51.52
43804;BME280;29430;52.924;-2.388;2023-05-23T14:28:53;100349.59;;;20.03;50.54
43804;BME280;29430;52.924;-2.388;2023-05-23T14:33:45;100363.06;;;19.94;48.98
43804;BME280;29430;52.924;-2.388;2023-05-23T14:38:38;100347.88;;;19.92;50.51
43804;BME280;29430;52.924;-2.388;2023-05-23T14:43:31;100354.53;;;19.96;50.93
43804;BME280;29430;52.924;-2.388;2023-05-23T14:48:22;100347.66;;;19.98;50.11
43804;BME280;29430;52.924;-2.388;2023-05-23T14:53:14;100351.19;;;19.94;49.35
43804;BME280;29430;52.924;-2.388;2023-05-23T14:58:06;100349.28;;;19.94;49.55
43804;BME280;29430;52.924;-2.388;2023-05-23T15:02:58;100354.28;;;19.97;49.51
43804;BME280;29430;52.924;-2.388;2023-05-23T15:07:50;100343.69;;;19.84;48.49
43804;BME280;29430;52.924;-2.388;2023-05-23T15:12:42;100343.56;;;19.74;48.43
43804;BME280;29430;52.924;-2.388;2023-05-23T15:17:34;100351.81;;;19.68;47.86
43804;BME280;29430;52.924;-2.388;2023-05-23T15:22:27;100347.13;;;19.69;48.06
43804;BME280;29430;52.924;-2.388;2023-05-23T15:27:22;100345.50;;;19.73;46.59
43804;BME280;29430;52.924;-2.388;2023-05-23T15:32:14;100351.81;;;19.68;46.42
43804;BME280;29430;52.924;-2.388;2023-05-23T15:37:06;100353.88;;;19.51;45.29
43804;BME280;29430;52.924;-2.388;2023-05-23T15:41:58;100333.50;;;19.52;46.99
43804;BME280;29430;52.924;-2.388;2023-05-23T15:46:50;100343.94;;;19.50;44.99
43804;BME280;29430;52.924;-2.388;2023-05-23T15:51:42;100345.94;;;19.27;45.99
43804;BME280;29430;52.924;-2.388;2023-05-23T15:56:33;100343.13;;;19.22;46.95
43804;BME280;29430;52.924;-2.388;2023-05-23T16:01:25;100345.59;;;19.19;47.01
43804;BME280;29430;52.924;-2.388;2023-05-23T16:06:17;100344.41;;;19.09;46.55
43804;BME280;29430;52.924;-2.388;2023-05-23T16:11:09;100344.06;;;19.06;48.02
43804;BME280;29430;52.924;-2.388;2023-05-23T16:16:02;100336.59;;;19.01;47.55
43804;BME280;29430;52.924;-2.388;2023-05-23T16:20:54;100337.84;;;18.88;47.24
43804;BME280;29430;52.924;-2.388;2023-05-23T16:25:47;100344.06;;;18.84;46.71
43804;BME280;29430;52.924;-2.388;2023-05-23T16:30:39;100348.66;;;18.78;46.74
43804;BME280;29430;52.924;-2.388;2023-05-23T16:35:31;100332.94;;;18.73;46.77
43804;BME280;29430;52.924;-2.388;2023-05-23T16:40:22;100345.31;;;18.71;46.46
43804;BME280;29430;52.924;-2.388;2023-05-23T16:45:14;100345.44;;;18.59;45.68
43804;BME280;29430;52.924;-2.388;2023-05-23T16:50:06;100344.97;;;18.45;46.63
43804;BME280;29430;52.924;-2.388;2023-05-23T16:54:59;100338.50;;;18.34;47.41
43804;BME280;29430;52.924;-2.388;2023-05-23T16:59:51;100335.72;;;18.29;47.14
43804;BME280;29430;52.924;-2.388;2023-05-23T17:04:42;100339.53;;;18.28;47.15
43804;BME280;29430;52.924;-2.388;2023-05-23T17:09:35;100336.38;;;18.19;48.73
43804;BME280;29430;52.924;-2.388;2023-05-23T17:14:27;100334.06;;;18.11;48.33
43804;BME280;29430;52.924;-2.388;2023-05-23T17:19:19;100333.41;;;18.04;48.59
43804;BME280;29430;52.924;-2.388;2023-05-23T17:24:11;100326.63;;;17.89;47.40
43804;BME280;29430;52.924;-2.388;2023-05-23T17:29:03;100329.41;;;17.78;47.19
43804;BME280;29430;52.924;-2.388;2023-05-23T17:33:55;100330.16;;;17.73;46.92
43804;BME280;29430;52.924;-2.388;2023-05-23T17:38:47;100329.78;;;17.64;47.19
43804;BME280;29430;52.924;-2.388;2023-05-23T17:43:40;100325.53;;;17.57;45.48
43804;BME280;29430;52.924;-2.388;2023-05-23T17:48:33;100318.44;;;17.44;45.30
43804;BME280;29430;52.924;-2.388;2023-05-23T17:53:37;100322.34;;;17.31;44.30
43804;BME280;29430;52.924;-2.388;2023-05-23T17:58:31;100321.00;;;17.16;45.70
43804;BME280;29430;52.924;-2.388;2023-05-23T18:03:23;100317.84;;;17.08;47.75
43804;BME280;29430;52.924;-2.388;2023-05-23T18:08:15;100312.84;;;17.05;48.84
43804;BME280;29430;52.924;-2.388;2023-05-23T18:13:06;100311.41;;;17.02;51.37
43804;BME280;29430;52.924;-2.388;2023-05-23T18:17:58;100313.50;;;16.95;53.17
43804;BME280;29430;52.924;-2.388;2023-05-23T18:22:51;100312.19;;;16.86;54.28
43804;BME280;29430;52.924;-2.388;2023-05-23T18:27:44;100319.97;;;16.77;55.42
43804;BME280;29430;52.924;-2.388;2023-05-23T18:32:36;100322.72;;;16.65;56.03
43804;BME280;29430;52.924;-2.388;2023-05-23T18:37:27;100325.03;;;16.56;56.94
43804;BME280;29430;52.924;-2.388;2023-05-23T18:42:19;100318.63;;;16.51;57.31
43804;BME280;29430;52.924;-2.388;2023-05-23T18:47:11;100327.22;;;16.42;56.78
43804;BME280;29430;52.924;-2.388;2023-05-23T18:52:03;100327.94;;;16.38;54.92
43804;BME280;29430;52.924;-2.388;2023-05-23T18:56:56;100327.94;;;16.26;51.58
43804;BME280;29430;52.924;-2.388;2023-05-23T19:01:48;100336.16;;;16.14;50.85
43804;BME280;29430;52.924;-2.388;2023-05-23T19:06:41;100342.25;;;16.04;49.45
43804;BME280;29430;52.924;-2.388;2023-05-23T19:11:32;100340.69;;;15.85;50.10
43804;BME280;29430;52.924;-2.388;2023-05-23T19:16:24;100349.47;;;15.63;50.19
43804;BME280;29430;52.924;-2.388;2023-05-23T19:21:16;100344.09;;;15.45;50.62
43804;BME280;29430;52.924;-2.388;2023-05-23T19:26:07;100346.19;;;15.31;51.79
43804;BME280;29430;52.924;-2.388;2023-05-23T19:31:00;100339.72;;;15.13;52.45
43804;BME280;29430;52.924;-2.388;2023-05-23T19:35:52;100343.47;;;15.00;52.99
43804;BME280;29430;52.924;-2.388;2023-05-23T19:40:45;100336.66;;;14.91;53.44
43804;BME280;29430;52.924;-2.388;2023-05-23T19:45:37;100337.22;;;14.81;53.55
43804;BME280;29430;52.924;-2.388;2023-05-23T19:50:29;100341.56;;;14.71;53.96
43804;BME280;29430;52.924;-2.388;2023-05-23T19:55:20;100343.78;;;14.62;54.56
43804;BME280;29430;52.924;-2.388;2023-05-23T20:00:12;100364.81;;;14.55;55.21
43804;BME280;29430;52.924;-2.388;2023-05-23T20:05:06;100358.44;;;14.42;55.71
43804;BME280;29430;52.924;-2.388;2023-05-23T20:09:58;100357.06;;;14.33;55.98
43804;BME280;29430;52.924;-2.388;2023-05-23T20:14:50;100352.97;;;14.24;56.15
43804;BME280;29430;52.924;-2.388;2023-05-23T20:19:42;100357.84;;;14.22;56.67
43804;BME280;29430;52.924;-2.388;2023-05-23T20:24:33;100345.47;;;14.19;56.71
43804;BME280;29430;52.924;-2.388;2023-05-23T20:29:25;100349.84;;;14.02;57.45
43804;BME280;29430;52.924;-2.388;2023-05-23T20:34:17;100345.31;;;13.95;58.05
43804;BME280;29430;52.924;-2.388;2023-05-23T20:39:09;100339.91;;;13.89;58.88
43804;BME280;29430;52.924;-2.388;2023-05-23T20:44:00;100344.81;;;13.80;59.16
43804;BME280;29430;52.924;-2.388;2023-05-23T20:48:52;100351.97;;;13.74;60.01
43804;BME280;29430;52.924;-2.388;2023-05-23T20:53:44;100351.81;;;13.69;60.11
43804;BME280;29430;52.924;-2.388;2023-05-23T20:58:35;100363.84;;;13.61;61.03
43804;BME280;29430;52.924;-2.388;2023-05-23T21:03:28;100357.16;;;13.57;61.71
43804;BME280;29430;52.924;-2.388;2023-05-23T21:08:19;100368.28;;;13.56;62.00
43804;BME280;29430;52.924;-2.388;2023-05-23T21:13:12;100371.72;;;13.45;62.22
43804;BME280;29430;52.924;-2.388;2023-05-23T21:18:04;100371.56;;;13.39;63.31
43804;BME280;29430;52.924;-2.388;2023-05-23T21:22:56;100368.22;;;13.31;63.47
43804;BME280;29430;52.924;-2.388;2023-05-23T21:27:47;100358.66;;;13.21;64.51
43804;BME280;29430;52.924;-2.388;2023-05-23T21:32:39;100354.50;;;13.12;64.65
43804;BME280;29430;52.924;-2.388;2023-05-23T21:37:31;100344.09;;;13.02;64.93
43804;BME280;29430;52.924;-2.388;2023-05-23T21:42:23;100345.84;;;12.90;66.04
43804;BME280;29430;52.924;-2.388;2023-05-23T21:47:15;100358.66;;;12.83;66.61
43804;BME280;29430;52.924;-2.388;2023-05-23T21:52:07;100365.19;;;12.75;67.30
43804;BME280;29430;52.924;-2.388;2023-05-23T21:56:59;100370.66;;;12.68;67.41
43804;BME280;29430;52.924;-2.388;2023-05-23T22:01:50;100378.00;;;12.61;67.72
43804;BME280;29430;52.924;-2.388;2023-05-23T22:06:42;100377.19;;;12.54;68.24
43804;BME280;29430;52.924;-2.388;2023-05-23T22:11:34;100381.59;;;12.55;68.62
43804;BME280;29430;52.924;-2.388;2023-05-23T22:16:26;100379.69;;;12.56;68.81
43804;BME280;29430;52.924;-2.388;2023-05-23T22:21:18;100382.41;;;12.56;69.67
43804;BME280;29430;52.924;-2.388;2023-05-23T22:26:10;100374.06;;;12.50;69.82
43804;BME280;29430;52.924;-2.388;2023-05-23T22:31:03;100364.03;;;12.44;69.75
43804;BME280;29430;52.924;-2.388;2023-05-23T22:35:54;100378.28;;;12.40;70.67
43804;BME280;29430;52.924;-2.388;2023-05-23T22:40:46;100369.28;;;12.32;70.94
43804;BME280;29430;52.924;-2.388;2023-05-23T22:45:38;100373.72;;;12.27;70.95
43804;BME280;29430;52.924;-2.388;2023-05-23T22:50:36;100365.56;;;12.20;71.84
43804;BME280;29430;52.924;-2.388;2023-05-23T22:55:31;100354.69;;;12.13;72.16
43804;BME280;29430;52.924;-2.388;2023-05-23T23:00:24;100344.25;;;12.10;73.19
43804;BME280;29430;52.924;-2.388;2023-05-23T23:05:19;100350.09;;;12.07;74.57
43804;BME280;29430;52.924;-2.388;2023-05-23T23:10:11;100343.41;;;12.03;74.79
43804;BME280;29430;52.924;-2.388;2023-05-23T23:15:03;100342.41;;;11.97;75.78
43804;BME280;29430;52.924;-2.388;2023-05-23T23:19:55;100346.75;;;11.92;75.58
43804;BME280;29430;52.924;-2.388;2023-05-23T23:24:48;100336.94;;;11.84;76.02
43804;BME280;29430;52.924;-2.388;2023-05-23T23:29:39;100334.63;;;11.81;76.69
43804;BME280;29430;52.924;-2.388;2023-05-23T23:34:31;100330.44;;;11.78;77.06
43804;BME280;29430;52.924;-2.388;2023-05-23T23:39:23;100323.13;;;11.72;77.08
43804;BME280;29430;52.924;-2.388;2023-05-23T23:44:15;100321.91;;;11.68;77.61
43804;BME280;29430;52.924;-2.388;2023-05-23T23:49:06;100311.88;;;11.62;77.74
43804;BME280;29430;52.924;-2.388;2023-05-23T23:53:58;100301.63;;;11.57;78.25
43804;BME280;29430;52.924;-2.388;2023-05-23T23:58:50;100302.88;;;11.55;78.65
